Terminal Aerodrome Forecast
Issued by NWS Wilmington, NC

Home | Current Version | Previous Version | Text Only | Print | Product List | Glossary On
Versions: 1 2 3 4 5 6 7 8 9 10 11 12 13 14 15 16 17 18 19 20 21 22
943
FTUS42 KILM 171825 CCA
TAFLBT
TAF COR
KLBT 171825Z 1718/1818 24005KT P6SM BKN006 BKN250
     FM171845 22007KT P6SM FEW008 SCT250
     FM172300 21005KT P6SM FEW080 SCT250
     FM180200 22007KT P6SM SCT080 SCT250 WS012/23034KT
     FM181300 25012KT P6SM BKN080 PROB30 1814/1818 -SHRA=

USA.gov is the U.S. government's official web portal to all federal, state and local government web resources and services.